createdAt,value
2018-02-26T00:02:05.368Z,-3.20
2018-02-26T00:04:32.338Z,-3.20
2018-02-26T00:06:59.199Z,-3.20
2018-02-26T00:09:26.155Z,-3.30
2018-02-26T00:11:53.014Z,-3.30
2018-02-26T00:14:19.998Z,-3.40
2018-02-26T00:16:46.861Z,-3.30
2018-02-26T00:19:13.704Z,-3.30
2018-02-26T00:21:40.627Z,-3.40
2018-02-26T00:24:07.585Z,-3.40
2018-02-26T00:26:34.841Z,-3.40
2018-02-26T00:29:01.692Z,-3.40
2018-02-26T00:31:28.923Z,-3.40
2018-02-26T00:33:55.846Z,-3.40
2018-02-26T00:36:22.706Z,-3.40
2018-02-26T00:38:49.659Z,-3.40
2018-02-26T00:41:16.625Z,-3.40
2018-02-26T00:43:43.564Z,-3.40
2018-02-26T00:46:10.532Z,-3.40
2018-02-26T00:48:37.405Z,-3.30
2018-02-26T00:51:04.257Z,-3.40
2018-02-26T00:53:31.305Z,-3.50
2018-02-26T00:55:58.165Z,-3.70
2018-02-26T00:58:25.033Z,-3.80
2018-02-26T01:00:51.978Z,-3.80
2018-02-26T01:03:18.842Z,-4.00
2018-02-26T01:05:45.684Z,-4.00
2018-02-26T01:08:12.565Z,-4.10
2018-02-26T01:10:39.428Z,-4.10
2018-02-26T01:13:06.277Z,-4.10
2018-02-26T01:15:33.136Z,-4.10
2018-02-26T01:17:59.982Z,-4.10
2018-02-26T01:20:26.871Z,-4.00
2018-02-26T01:22:53.745Z,-4.00
2018-02-26T01:25:20.672Z,-4.00
2018-02-26T01:27:47.616Z,-4.10
2018-02-26T01:30:14.461Z,-4.10
2018-02-26T01:32:41.324Z,-4.10
2018-02-26T01:35:08.316Z,-4.00
2018-02-26T01:37:35.196Z,-4.00
2018-02-26T01:40:02.047Z,-4.00
2018-02-26T01:42:28.953Z,-4.10
2018-02-26T01:44:55.828Z,-4.00
2018-02-26T01:47:22.718Z,-4.00
2018-02-26T01:49:49.608Z,-3.90
2018-02-26T01:52:16.459Z,-3.90
2018-02-26T01:54:43.700Z,-4.00
2018-02-26T01:57:10.604Z,-4.00
2018-02-26T01:59:37.455Z,-4.20
2018-02-26T02:02:04.312Z,-4.30
2018-02-26T02:04:31.179Z,-4.20
2018-02-26T02:06:58.058Z,-4.10
2018-02-26T02:09:24.898Z,-4.10
2018-02-26T02:11:51.894Z,-4.10
2018-02-26T02:14:18.806Z,-4.10
2018-02-26T02:16:45.657Z,-4.00
2018-02-26T02:19:12.525Z,-4.00
2018-02-26T02:21:39.380Z,-4.10
2018-02-26T02:24:06.244Z,-4.20
2018-02-26T02:26:33.200Z,-4.40
2018-02-26T02:29:00.060Z,-4.50
2018-02-26T02:31:27.012Z,-4.50
2018-02-26T02:33:53.893Z,-4.40
2018-02-26T02:36:20.943Z,-4.40
2018-02-26T02:38:47.901Z,-4.40
2018-02-26T02:41:14.849Z,-4.40
2018-02-26T02:43:41.710Z,-4.60
2018-02-26T02:46:08.581Z,-4.50
2018-02-26T02:48:35.445Z,-4.40
2018-02-26T02:51:02.334Z,-4.40
2018-02-26T02:53:29.189Z,-4.40
2018-02-26T02:55:56.039Z,-4.40
2018-02-26T02:58:22.921Z,-4.60
2018-02-26T03:00:50.244Z,-4.60
2018-02-26T03:03:17.102Z,-4.60
2018-02-26T03:05:44.029Z,-4.60
2018-02-26T03:08:10.903Z,-4.70
2018-02-26T03:10:37.775Z,-4.80
2018-02-26T03:13:04.626Z,-4.70
2018-02-26T03:15:31.574Z,-4.60
2018-02-26T03:17:58.518Z,-4.50
2018-02-26T03:20:25.390Z,-4.60
2018-02-26T03:22:52.240Z,-4.50
2018-02-26T03:25:19.110Z,-4.60
2018-02-26T03:27:46.000Z,-4.70
2018-02-26T03:30:12.857Z,-4.60
2018-02-26T03:32:39.729Z,-4.60
2018-02-26T03:35:07.041Z,-4.60
2018-02-26T03:37:33.888Z,-4.60
2018-02-26T03:40:00.745Z,-4.60
2018-02-26T03:42:27.592Z,-4.60
2018-02-26T03:44:54.449Z,-4.60
2018-02-26T03:47:21.339Z,-4.60
2018-02-26T03:49:48.221Z,-4.50
2018-02-26T03:52:15.066Z,-4.60
2018-02-26T03:54:41.931Z,-4.70
2018-02-26T03:57:08.811Z,-4.80
2018-02-26T03:59:35.665Z,-4.90
2018-02-26T04:02:02.968Z,-4.80
2018-02-26T04:04:29.833Z,-4.80
2018-02-26T04:06:56.702Z,-4.70
2018-02-26T04:09:23.652Z,-4.70
2018-02-26T04:11:50.618Z,-4.70
2018-02-26T04:14:17.478Z,-4.90
2018-02-26T04:16:44.521Z,-4.90
2018-02-26T04:19:11.485Z,-4.90
2018-02-26T04:21:38.350Z,-4.80
2018-02-26T04:24:05.301Z,-4.80
2018-02-26T04:26:32.173Z,-4.80
2018-02-26T04:28:59.049Z,-4.80
2018-02-26T04:31:25.885Z,-4.70
2018-02-26T04:33:52.757Z,-5.00
2018-02-26T04:36:19.615Z,-5.00
2018-02-26T04:38:46.555Z,-5.00
2018-02-26T04:41:13.508Z,-4.90
2018-02-26T04:43:40.414Z,-4.80
2018-02-26T04:46:07.253Z,-4.90
2018-02-26T04:48:34.196Z,-4.90
2018-02-26T04:51:01.149Z,-4.80
2018-02-26T04:53:28.095Z,-4.80
2018-02-26T04:55:54.958Z,-4.80
2018-02-26T04:58:21.827Z,-4.80
2018-02-26T05:00:48.688Z,-4.90
2018-02-26T05:03:15.546Z,-4.90
2018-02-26T05:05:42.400Z,-4.90
2018-02-26T05:08:09.383Z,-4.90
2018-02-26T05:10:36.297Z,-4.90
2018-02-26T05:13:03.153Z,-4.90
2018-02-26T05:15:30.005Z,-4.90
2018-02-26T05:17:56.861Z,-4.90
2018-02-26T05:20:23.862Z,-4.90
2018-02-26T05:22:50.799Z,-5.00
2018-02-26T05:25:17.649Z,-5.00
2018-02-26T05:27:44.525Z,-4.90
2018-02-26T05:30:11.475Z,-4.90
2018-02-26T05:32:38.421Z,-5.00
2018-02-26T05:35:05.269Z,-5.10
2018-02-26T05:37:32.205Z,-5.10
2018-02-26T05:39:59.513Z,-5.10
2018-02-26T05:42:26.481Z,-5.10
2018-02-26T05:44:53.368Z,-5.10
2018-02-26T05:47:20.298Z,-5.10
2018-02-26T05:49:47.240Z,-5.00
2018-02-26T05:52:14.083Z,-5.10
2018-02-26T05:54:40.956Z,-5.10
2018-02-26T05:57:07.908Z,-5.10
2018-02-26T05:59:34.871Z,-5.10
2018-02-26T06:02:01.718Z,-5.00
2018-02-26T06:04:28.560Z,-5.00
2018-02-26T06:06:55.470Z,-5.00
2018-02-26T06:09:22.338Z,-5.10
2018-02-26T06:11:49.279Z,-5.10
2018-02-26T06:14:16.303Z,-5.10
2018-02-26T06:16:43.170Z,-5.10
2018-02-26T06:19:10.181Z,-5.10
2018-02-26T06:21:37.077Z,-4.90
2018-02-26T06:24:03.960Z,-4.80
2018-02-26T06:26:30.812Z,-4.80
2018-02-26T06:28:57.809Z,-4.80
2018-02-26T06:31:24.733Z,-4.80
2018-02-26T06:33:51.701Z,-4.90
2018-02-26T06:36:18.562Z,-4.80
2018-02-26T06:38:45.473Z,-4.80
2018-02-26T06:41:12.308Z,-4.90
2018-02-26T06:43:39.255Z,-4.90
2018-02-26T06:46:06.097Z,-5.00
2018-02-26T06:48:33.025Z,-4.90
2018-02-26T06:51:00.334Z,-5.00
2018-02-26T06:53:27.157Z,-5.00
2018-02-26T06:55:54.025Z,-4.90
2018-02-26T06:58:20.900Z,-4.80
2018-02-26T07:00:47.826Z,-4.60
2018-02-26T07:03:14.878Z,-4.60
2018-02-26T07:05:42.099Z,-4.40
2018-02-26T07:08:08.969Z,-4.40
2018-02-26T07:10:36.226Z,-4.10
2018-02-26T07:13:03.133Z,-4.10
2018-02-26T07:15:30.002Z,-4.00
2018-02-26T07:17:56.845Z,-4.00
2018-02-26T07:20:23.713Z,-3.90
2018-02-26T07:22:50.865Z,-3.80
2018-02-26T07:25:17.732Z,-3.80
2018-02-26T07:27:44.689Z,-3.70
2018-02-26T07:30:11.556Z,-3.60
2018-02-26T07:32:38.505Z,-3.50
2018-02-26T07:35:05.398Z,-3.30
2018-02-26T07:37:32.331Z,-3.40
2018-02-26T07:39:59.179Z,-3.60
2018-02-26T07:42:26.129Z,-3.60
2018-02-26T07:44:53.092Z,-3.70
2018-02-26T07:47:20.086Z,-3.80
2018-02-26T07:49:46.953Z,-3.90
2018-02-26T07:52:13.820Z,-3.70
2018-02-26T07:54:40.685Z,-3.70
2018-02-26T07:57:07.532Z,-3.90
2018-02-26T07:59:34.405Z,-3.80
2018-02-26T08:02:01.644Z,-3.40
2018-02-26T08:04:28.496Z,-3.40
2018-02-26T08:06:55.422Z,-3.30
2018-02-26T08:09:22.280Z,-3.30
2018-02-26T08:11:49.245Z,-3.50
2018-02-26T08:14:16.088Z,-3.60
2018-02-26T08:16:43.053Z,-3.60
2018-02-26T08:19:09.908Z,-3.60
2018-02-26T08:21:36.866Z,-3.60
2018-02-26T08:24:03.733Z,-3.50
2018-02-26T08:26:30.598Z,-3.30
2018-02-26T08:28:57.460Z,-3.20
2018-02-26T08:31:24.297Z,-3.20
2018-02-26T08:33:51.254Z,-3.00
2018-02-26T08:36:18.206Z,-2.90
2018-02-26T08:38:45.054Z,-2.90
2018-02-26T08:41:11.925Z,-2.90
2018-02-26T08:43:38.837Z,-2.90
2018-02-26T08:46:06.068Z,-3.10
2018-02-26T08:48:33.008Z,-3.10
2018-02-26T08:50:59.858Z,-3.10
2018-02-26T08:53:26.722Z,-3.10
2018-02-26T08:55:53.586Z,-3.20
2018-02-26T08:58:20.536Z,-3.10
2018-02-26T09:00:47.384Z,-3.10
2018-02-26T09:03:14.254Z,-3.10
2018-02-26T09:05:41.213Z,-2.90
2018-02-26T09:08:08.082Z,-3.00
2018-02-26T09:10:34.932Z,-3.10
2018-02-26T09:13:01.878Z,-3.00
2018-02-26T09:15:28.761Z,-2.80
2018-02-26T09:17:55.706Z,-2.80
2018-02-26T09:20:22.596Z,-2.90
2018-02-26T09:22:49.453Z,-3.00
2018-02-26T09:25:16.325Z,-3.30
2018-02-26T09:27:43.629Z,-3.30
2018-02-26T09:30:10.504Z,-3.30
2018-02-26T09:32:37.572Z,-3.00
2018-02-26T09:35:04.510Z,-2.70
2018-02-26T09:37:31.395Z,-2.60
2018-02-26T09:39:58.513Z,-2.50
2018-02-26T09:42:25.481Z,-2.20
2018-02-26T09:44:52.765Z,-2.10
2018-02-26T09:47:19.721Z,-2.10
2018-02-26T09:49:46.577Z,-1.90
2018-02-26T09:52:13.611Z,-2.10
2018-02-26T09:54:40.899Z,-2.50
2018-02-26T09:57:07.773Z,-2.50
2018-02-26T09:59:34.674Z,-2.50
2018-02-26T10:02:01.555Z,-2.40
2018-02-26T10:04:28.850Z,-1.90
2018-02-26T10:06:55.706Z,-1.90
2018-02-26T10:09:22.580Z,-1.50
2018-02-26T10:11:49.511Z,-1.60
2018-02-26T10:14:16.368Z,-1.90
2018-02-26T10:16:43.256Z,-2.20
2018-02-26T10:19:10.110Z,-2.20
2018-02-26T10:21:36.985Z,-2.30
2018-02-26T10:24:03.996Z,-2.30
2018-02-26T10:26:31.281Z,-2.20
2018-02-26T10:28:58.129Z,-2.30
2018-02-26T10:31:25.112Z,-2.10
2018-02-26T10:33:52.060Z,-2.20
2018-02-26T10:36:18.908Z,-1.90
2018-02-26T10:38:45.774Z,-1.70
2018-02-26T10:41:12.646Z,-2.10
2018-02-26T10:43:39.629Z,-2.40
2018-02-26T10:46:06.494Z,-2.20
2018-02-26T10:48:33.763Z,-1.70
2018-02-26T10:51:00.617Z,-1.70
2018-02-26T10:53:27.878Z,-1.60
2018-02-26T10:55:54.793Z,-1.60
2018-02-26T10:58:21.744Z,-1.40
2018-02-26T11:00:48.617Z,-1.00
2018-02-26T11:03:15.453Z,-0.80
2018-02-26T11:05:42.344Z,-0.70
2018-02-26T11:08:09.205Z,-0.90
2018-02-26T11:10:36.129Z,-1.60
2018-02-26T11:13:02.977Z,-1.80
2018-02-26T11:15:29.872Z,-2.00
2018-02-26T11:17:56.800Z,-2.10
2018-02-26T11:20:23.756Z,-2.10
2018-02-26T11:22:50.646Z,-2.40
2018-02-26T11:25:17.669Z,-2.40
2018-02-26T11:27:44.524Z,-2.60
2018-02-26T11:30:11.404Z,-2.40
2018-02-26T11:32:38.260Z,-2.20
2018-02-26T11:35:05.121Z,-1.90
2018-02-26T11:37:32.153Z,-1.80
2018-02-26T11:39:59.117Z,-1.70
2018-02-26T11:42:25.988Z,-1.40
2018-02-26T11:44:52.969Z,-1.10
2018-02-26T11:47:19.826Z,-1.00
2018-02-26T11:49:46.758Z,-1.00
2018-02-26T11:52:13.841Z,-1.00
2018-02-26T11:54:41.054Z,-0.70
2018-02-26T11:57:08.347Z,-0.80
2018-02-26T11:59:35.244Z,-0.80
2018-02-26T12:02:02.117Z,-0.90
2018-02-26T12:04:28.962Z,-0.90
2018-02-26T12:06:55.829Z,-1.10
2018-02-26T12:09:22.746Z,-1.10
2018-02-26T12:11:49.714Z,-1.50
2018-02-26T12:14:16.554Z,-1.60
2018-02-26T12:16:43.402Z,-1.70
2018-02-26T12:19:10.277Z,-1.40
2018-02-26T12:21:37.152Z,-1.20
2018-02-26T12:24:04.037Z,-1.00
2018-02-26T12:26:30.875Z,-1.10
2018-02-26T12:28:57.735Z,-1.20
2018-02-26T12:31:24.648Z,-1.30
2018-02-26T12:33:51.556Z,-1.10
2018-02-26T12:36:18.479Z,-0.90
2018-02-26T12:38:45.365Z,-1.30
2018-02-26T12:41:12.204Z,-1.40
2018-02-26T12:43:39.155Z,-1.70
2018-02-26T12:46:06.110Z,-1.80
2018-02-26T12:48:32.983Z,-1.70
2018-02-26T12:50:59.857Z,-1.60
2018-02-26T12:53:26.872Z,-1.40
2018-02-26T12:55:53.834Z,-0.90
2018-02-26T12:58:20.686Z,-0.60
2018-02-26T13:00:47.552Z,-0.80
2018-02-26T13:03:14.396Z,-1.10
2018-02-26T13:05:41.253Z,-1.50
2018-02-26T13:08:08.113Z,-1.60
2018-02-26T13:10:34.970Z,-1.70
2018-02-26T13:13:01.832Z,-1.80
2018-02-26T13:15:28.687Z,-1.80
2018-02-26T13:17:55.550Z,-1.80
2018-02-26T13:20:22.414Z,-1.90
2018-02-26T13:22:49.304Z,-2.40
2018-02-26T13:25:16.212Z,-2.40
2018-02-26T13:27:43.065Z,-2.40
2018-02-26T13:30:10.037Z,-2.40
2018-02-26T13:32:36.907Z,-2.10
2018-02-26T13:35:03.754Z,-2.10
2018-02-26T13:37:30.612Z,-2.10
2018-02-26T13:39:57.565Z,-2.00
2018-02-26T13:42:24.422Z,-1.80
2018-02-26T13:44:51.387Z,-1.60
2018-02-26T13:47:18.282Z,-1.30
2018-02-26T13:49:45.202Z,-1.20
2018-02-26T13:52:12.058Z,-1.10
2018-02-26T13:54:38.943Z,-1.10
2018-02-26T13:57:05.790Z,-1.40
2018-02-26T13:59:32.714Z,-1.70
2018-02-26T14:01:59.955Z,-1.60
2018-02-26T14:04:27.197Z,-1.50
2018-02-26T14:06:54.075Z,-1.50
2018-02-26T14:09:21.368Z,-1.60
2018-02-26T14:11:48.255Z,-1.60
2018-02-26T14:14:15.331Z,-1.80
2018-02-26T14:16:42.168Z,-1.80
2018-02-26T14:19:09.130Z,-1.70
2018-02-26T14:21:36.032Z,-1.60
2018-02-26T14:24:02.928Z,-1.50
2018-02-26T14:26:29.778Z,-1.40
2018-02-26T14:28:56.645Z,-1.70
2018-02-26T14:31:23.518Z,-1.70
2018-02-26T14:33:50.410Z,-1.60
2018-02-26T14:36:17.285Z,-1.70
2018-02-26T14:38:44.572Z,-1.90
2018-02-26T14:41:11.414Z,-2.00
2018-02-26T14:43:38.277Z,-2.10
2018-02-26T14:46:05.126Z,-2.20
2018-02-26T14:48:32.002Z,-2.10
2018-02-26T14:50:58.853Z,-2.20
2018-02-26T14:53:25.747Z,-2.20
2018-02-26T14:55:53.421Z,-2.30
2018-02-26T14:58:20.464Z,-2.40
2018-02-26T15:00:47.310Z,-2.40
2018-02-26T15:03:14.177Z,-2.20
2018-02-26T15:05:41.085Z,-2.30
2018-02-26T15:08:07.940Z,-2.20
2018-02-26T15:10:35.260Z,-2.60
2018-02-26T15:13:02.235Z,-2.60
2018-02-26T15:15:29.209Z,-2.90
2018-02-26T15:17:56.148Z,-2.80
2018-02-26T15:20:23.049Z,-2.70
2018-02-26T15:22:50.322Z,-2.80
2018-02-26T15:25:17.625Z,-2.90
2018-02-26T15:27:44.549Z,-2.90
2018-02-26T15:30:11.801Z,-2.80
2018-02-26T15:32:39.051Z,-2.80
2018-02-26T15:35:05.977Z,-2.80
2018-02-26T15:37:32.910Z,-2.60
2018-02-26T15:39:59.801Z,-2.40
2018-02-26T15:42:26.673Z,-2.50
2018-02-26T15:44:53.717Z,-2.60
2018-02-26T15:47:20.564Z,-2.70
2018-02-26T15:49:47.433Z,-2.50
2018-02-26T15:52:14.385Z,-2.40
2018-02-26T15:54:41.252Z,-2.40
2018-02-26T15:57:08.130Z,-2.40
2018-02-26T15:59:35.166Z,-2.50
2018-02-26T16:02:02.017Z,-2.50
2018-02-26T16:04:28.884Z,-2.50
2018-02-26T16:06:55.744Z,-2.40
2018-02-26T16:09:22.615Z,-2.20
2018-02-26T16:11:49.452Z,-2.50
2018-02-26T16:14:16.332Z,-2.70
2018-02-26T16:16:43.242Z,-2.80
2018-02-26T16:19:10.132Z,-2.80
2018-02-26T16:21:37.080Z,-2.70
2018-02-26T16:24:04.025Z,-2.50
2018-02-26T16:26:31.304Z,-2.60
2018-02-26T16:28:58.332Z,-2.60
2018-02-26T16:31:25.623Z,-2.60
2018-02-26T16:33:54.880Z,-2.60
2018-02-26T16:36:21.818Z,-2.70
2018-02-26T16:38:48.654Z,-2.80
2018-02-26T16:41:15.668Z,-2.80
2018-02-26T16:43:42.520Z,-2.90
2018-02-26T16:46:09.552Z,-2.80
2018-02-26T16:48:36.401Z,-2.70
2018-02-26T16:51:03.348Z,-2.80
2018-02-26T16:53:30.308Z,-2.80
2018-02-26T16:55:57.176Z,-2.80
2018-02-26T16:58:24.081Z,-2.60
2018-02-26T17:00:51.526Z,-2.80
2018-02-26T17:06:04.841Z,-2.80
2018-02-26T17:08:32.234Z,-2.80
2018-02-26T17:10:59.085Z,-2.80
2018-02-26T17:16:21.825Z,-2.90
2018-02-26T17:18:48.724Z,-2.80
2018-02-26T17:21:15.701Z,-2.80
2018-02-26T17:23:42.616Z,-2.80
2018-02-26T17:26:09.506Z,-2.90
2018-02-26T17:28:36.418Z,-3.00
2018-02-26T17:31:03.628Z,-3.10
2018-02-26T17:33:30.557Z,-3.10
2018-02-26T17:35:57.440Z,-3.30
2018-02-26T17:38:24.377Z,-3.40
2018-02-26T17:40:51.217Z,-3.40
2018-02-26T17:43:18.124Z,-3.40
2018-02-26T17:45:45.072Z,-3.40
2018-02-26T17:48:12.015Z,-3.30
2018-02-26T17:50:39.166Z,-3.30
2018-02-26T17:53:06.450Z,-3.00
2018-02-26T17:55:33.491Z,-3.00
2018-02-26T17:58:00.774Z,-3.00
2018-02-26T18:00:27.735Z,-3.00
2018-02-26T18:02:54.694Z,-3.00
2018-02-26T18:05:21.645Z,-2.90
2018-02-26T18:07:48.525Z,-2.80
2018-02-26T18:10:15.399Z,-2.90
2018-02-26T18:12:42.256Z,-2.90
2018-02-26T18:15:09.269Z,-3.10
2018-02-26T18:17:36.536Z,-3.00
2018-02-26T18:20:03.376Z,-3.00
2018-02-26T18:22:30.223Z,-2.90
2018-02-26T18:24:57.513Z,-2.90
2018-02-26T18:27:24.365Z,-2.90
2018-02-26T18:59:05.316Z,-2.80
2018-02-26T19:01:32.191Z,-2.80
2018-02-26T19:03:59.023Z,-2.60
2018-02-26T19:06:25.872Z,-2.50
2018-02-26T19:08:52.757Z,-2.50
2018-02-26T19:11:19.635Z,-2.70
2018-02-26T19:13:46.563Z,-2.80
2018-02-26T19:16:13.424Z,-2.90
2018-02-26T19:18:40.300Z,-2.90
2018-02-26T19:21:07.156Z,-3.00
2018-02-26T19:23:34.085Z,-3.00
2018-02-26T19:26:00.938Z,-3.00
2018-02-26T19:28:27.804Z,-3.00
2018-02-26T19:30:54.656Z,-3.10
2018-02-26T19:33:21.531Z,-3.20
2018-02-26T19:35:48.474Z,-3.20
2018-02-26T19:38:15.320Z,-3.10
2018-02-26T19:40:42.188Z,-3.10
2018-02-26T19:43:09.031Z,-2.90
2018-02-26T19:45:35.895Z,-2.80
2018-02-26T19:48:02.735Z,-3.00
2018-02-26T19:50:29.613Z,-3.00
2018-02-26T19:52:56.545Z,-3.00
2018-02-26T19:55:23.651Z,-2.90
2018-02-26T19:57:50.696Z,-2.90
2018-02-26T20:00:17.545Z,-2.90
2018-02-26T20:02:44.385Z,-2.80
2018-02-26T20:05:11.672Z,-2.80
2018-02-26T20:07:38.521Z,-2.80
2018-02-26T20:10:05.409Z,-2.90
2018-02-26T20:12:32.269Z,-2.90
2018-02-26T20:14:59.116Z,-2.80
2018-02-26T20:17:26.164Z,-2.90
2018-02-26T20:19:53.004Z,-2.90
2018-02-26T20:22:19.847Z,-3.00
2018-02-26T20:24:47.108Z,-2.90
2018-02-26T20:27:14.354Z,-2.90
2018-02-26T20:29:41.220Z,-2.90
2018-02-26T20:32:08.061Z,-2.90
2018-02-26T20:34:34.928Z,-3.00
2018-02-26T20:37:01.806Z,-2.90
2018-02-26T20:39:28.646Z,-2.90
2018-02-26T20:41:55.556Z,-2.80
2018-02-26T20:44:22.520Z,-2.80
2018-02-26T20:46:49.368Z,-2.80
2018-02-26T20:49:16.388Z,-2.90
2018-02-26T20:51:43.173Z,-2.90
2018-02-26T20:54:10.011Z,-3.00
2018-02-26T20:56:37.304Z,-3.10
2018-02-26T20:59:04.172Z,-3.00
2018-02-26T21:01:31.121Z,-2.90
2018-02-26T21:03:57.999Z,-2.90
2018-02-26T21:06:24.833Z,-2.90
2018-02-26T21:08:51.695Z,-2.90
2018-02-26T21:11:18.540Z,-2.90
2018-02-26T21:13:45.505Z,-3.00
2018-02-26T21:16:12.376Z,-3.00
2018-02-26T21:18:39.235Z,-2.90
2018-02-26T21:21:06.185Z,-3.00
2018-02-26T21:23:33.036Z,-2.90
2018-02-26T21:26:00.012Z,-2.90
2018-02-26T21:28:26.848Z,-2.90
2018-02-26T21:30:53.708Z,-2.90
2018-02-26T21:33:20.553Z,-3.00
2018-02-26T21:35:47.808Z,-3.00
2018-02-26T21:38:15.108Z,-2.90
2018-02-26T21:40:42.057Z,-2.90
2018-02-26T21:43:08.925Z,-2.80
2018-02-26T21:45:35.769Z,-2.80
2018-02-26T21:48:02.636Z,-2.90
2018-02-26T21:50:29.500Z,-3.10
2018-02-26T21:52:56.356Z,-3.10
2018-02-26T21:55:23.238Z,-3.00
2018-02-26T21:57:50.085Z,-2.90
2018-02-26T22:00:16.948Z,-2.90
2018-02-26T22:02:43.897Z,-3.00
2018-02-26T22:05:10.792Z,-3.00
2018-02-26T22:07:40.548Z,-3.10
2018-02-26T22:10:04.924Z,-3.10
2018-02-26T22:12:32.266Z,-3.00
2018-02-26T22:14:59.136Z,-3.00
2018-02-26T22:17:26.053Z,-3.10
2018-02-26T22:19:52.935Z,-3.00
2018-02-26T22:22:19.873Z,-2.90
2018-02-26T22:24:46.712Z,-3.10
2018-02-26T22:27:13.679Z,-3.10
2018-02-26T22:29:40.564Z,-3.10
2018-02-26T22:32:07.444Z,-2.90
2018-02-26T22:34:34.764Z,-2.90
2018-02-26T22:37:01.638Z,-2.90
2018-02-26T22:39:28.576Z,-2.90
2018-02-26T22:41:55.420Z,-3.00
2018-02-26T22:44:22.300Z,-2.90
2018-02-26T22:46:49.143Z,-3.00
2018-02-26T22:49:16.092Z,-2.90
2018-02-26T22:51:43.085Z,-3.10
2018-02-26T22:54:09.944Z,-3.10
2018-02-26T22:56:36.788Z,-3.10
2018-02-26T22:59:03.656Z,-3.10
2018-02-26T23:01:30.592Z,-3.00
2018-02-26T23:03:57.488Z,-3.00
2018-02-26T23:06:24.406Z,-3.00
2018-02-26T23:08:51.264Z,-3.00
2018-02-26T23:11:18.224Z,-2.90
2018-02-26T23:13:45.081Z,-2.80
2018-02-26T23:16:12.036Z,-2.70
2018-02-26T23:18:38.875Z,-2.70
2018-02-26T23:21:06.139Z,-2.60
2018-02-26T23:23:33.436Z,-2.60
2018-02-26T23:26:00.706Z,-2.50
2018-02-26T23:28:27.554Z,-2.50
2018-02-26T23:30:54.419Z,-2.60
2018-02-26T23:33:21.363Z,-2.70
2018-02-26T23:35:48.236Z,-2.70
2018-02-26T23:38:15.185Z,-2.70
2018-02-26T23:40:42.138Z,-2.60
2018-02-26T23:43:09.001Z,-2.60
2018-02-26T23:45:35.848Z,-2.60
2018-02-26T23:48:02.734Z,-2.60
2018-02-26T23:50:29.678Z,-2.50
2018-02-26T23:52:56.525Z,-2.50
2018-02-26T23:55:23.489Z,-2.50
2018-02-26T23:57:50.363Z,-2.60
